createdAt,value
2023-02-27T00:00:51.946Z,33.88
2023-02-27T00:01:52.006Z,33.93
2023-02-27T00:02:52.059Z,34.20
2023-02-27T00:03:52.094Z,34.04
2023-02-27T00:04:52.161Z,33.82
2023-02-27T00:05:52.184Z,33.89
2023-02-27T00:06:51.213Z,34.08
2023-02-27T00:07:51.245Z,34.18
2023-02-27T00:08:52.402Z,34.23
2023-02-27T00:09:52.314Z,34.14
2023-02-27T00:10:51.410Z,33.97
2023-02-27T00:11:51.428Z,34.13
2023-02-27T00:12:52.435Z,33.92
2023-02-27T00:13:52.470Z,34.21
2023-02-27T00:14:52.508Z,34.24
2023-02-27T00:15:52.584Z,34.02
2023-02-27T00:16:52.762Z,33.90
2023-02-27T00:17:51.592Z,34.03
2023-02-27T00:18:52.628Z,34.01
2023-02-27T00:19:52.664Z,34.00
2023-02-27T00:20:51.723Z,34.12
2023-02-27T00:21:52.740Z,34.08
2023-02-27T00:22:51.807Z,34.29
2023-02-27T00:23:52.834Z,34.18
2023-02-27T00:24:52.839Z,34.20
2023-02-27T00:25:52.923Z,34.17
2023-02-27T00:26:52.955Z,34.00
2023-02-27T00:27:52.973Z,34.06
2023-02-27T00:28:52.029Z,34.20
2023-02-27T00:29:53.061Z,33.91
2023-02-27T00:30:53.103Z,34.22
2023-02-27T00:31:53.206Z,33.96
2023-02-27T00:32:53.112Z,34.05
2023-02-27T00:33:53.240Z,33.95
2023-02-27T00:34:53.250Z,34.40
2023-02-27T00:35:53.302Z,34.02
2023-02-27T00:36:53.285Z,34.18
2023-02-27T00:37:52.318Z,34.04
2023-02-27T00:38:53.380Z,34.09
2023-02-27T00:39:53.384Z,34.01
2023-02-27T00:40:53.476Z,34.11
2023-02-27T00:41:53.442Z,34.23
2023-02-27T00:42:53.494Z,33.97
2023-02-27T00:43:53.549Z,34.04
2023-02-27T00:44:53.568Z,34.17
2023-02-27T00:45:53.586Z,33.94
2023-02-27T00:46:52.679Z,34.09
2023-02-27T00:47:52.657Z,33.64
2023-02-27T00:48:53.713Z,34.25
2023-02-27T00:49:53.713Z,33.64
2023-02-27T00:50:53.824Z,34.04
2023-02-27T00:51:53.787Z,34.25
2023-02-27T00:52:53.816Z,34.09
2023-02-27T00:53:53.879Z,34.07
2023-02-27T00:54:53.888Z,34.35
2023-02-27T00:55:53.907Z,33.61
2023-02-27T00:56:54.006Z,33.76
2023-02-27T00:57:54.037Z,33.59
2023-02-27T00:58:53.022Z,33.62
2023-02-27T00:59:53.072Z,33.33
2023-02-27T01:00:54.134Z,33.74
2023-02-27T01:01:53.144Z,34.05
2023-02-27T01:02:53.257Z,33.77
2023-02-27T01:03:54.215Z,33.58
2023-02-27T01:04:53.269Z,33.50
2023-02-27T01:05:53.358Z,33.61
2023-02-27T01:06:54.347Z,33.31
2023-02-27T01:07:54.384Z,33.66
2023-02-27T01:08:54.426Z,33.30
2023-02-27T01:09:54.473Z,33.35
2023-02-27T01:10:54.521Z,33.65
2023-02-27T01:11:54.510Z,33.74
2023-02-27T01:12:53.558Z,33.22
2023-02-27T01:13:54.582Z,33.36
2023-02-27T01:14:53.644Z,33.42
2023-02-27T01:15:53.674Z,33.52
2023-02-27T01:16:54.715Z,33.64
2023-02-27T01:17:54.749Z,33.23
2023-02-27T01:18:54.791Z,33.25
2023-02-27T01:19:54.906Z,33.35
2023-02-27T01:20:54.881Z,33.30
2023-02-27T01:21:54.905Z,33.40
2023-02-27T01:22:54.971Z,33.55
2023-02-27T01:23:55.007Z,33.43
2023-02-27T01:24:55.067Z,33.68
2023-02-27T01:25:55.081Z,33.52
2023-02-27T01:26:55.151Z,33.58
2023-02-27T01:27:54.183Z,33.41
2023-02-27T01:28:55.216Z,33.73
2023-02-27T01:29:55.253Z,33.16
2023-02-27T01:30:55.379Z,33.68
2023-02-27T01:31:55.414Z,33.34
2023-02-27T01:32:55.422Z,32.93
2023-02-27T01:33:55.484Z,33.44
2023-02-27T01:34:55.461Z,33.90
2023-02-27T01:35:55.512Z,33.31
2023-02-27T01:36:55.558Z,33.37
2023-02-27T01:37:54.570Z,33.43
2023-02-27T01:38:54.611Z,33.06
2023-02-27T01:39:55.659Z,33.25
2023-02-27T01:40:54.701Z,33.49
2023-02-27T01:41:55.840Z,33.51
2023-02-27T01:42:55.827Z,33.03
2023-02-27T01:43:55.871Z,33.11
2023-02-27T01:44:55.860Z,33.41
2023-02-27T01:45:55.939Z,33.22
2023-02-27T01:46:55.965Z,33.51
2023-02-27T01:47:56.039Z,33.66
2023-02-27T01:48:56.022Z,33.41
2023-02-27T01:49:56.052Z,33.53
2023-02-27T01:52:14.251Z,33.30
2023-02-27T01:53:15.287Z,33.51
2023-02-27T01:54:15.241Z,33.17
2023-02-27T01:55:15.225Z,33.31
2023-02-27T01:56:15.208Z,33.23
2023-02-27T01:57:15.266Z,33.22
2023-02-27T01:58:15.228Z,33.47
2023-02-27T01:59:15.192Z,33.25
2023-02-27T02:00:15.187Z,33.12
2023-02-27T02:01:14.212Z,33.29
2023-02-27T02:02:15.220Z,32.85
2023-02-27T02:03:15.205Z,32.97
2023-02-27T02:04:15.264Z,33.16
2023-02-27T02:05:15.323Z,33.22
2023-02-27T02:06:15.365Z,33.58
2023-02-27T02:07:15.374Z,33.38
2023-02-27T02:08:15.426Z,33.11
2023-02-27T02:09:14.471Z,33.16
2023-02-27T02:10:14.514Z,32.95
2023-02-27T02:11:15.569Z,33.08
2023-02-27T02:12:15.643Z,33.29
2023-02-27T02:13:15.662Z,33.02
2023-02-27T02:14:15.764Z,33.02
2023-02-27T02:15:15.770Z,33.04
2023-02-27T02:16:15.808Z,33.23
2023-02-27T02:17:15.890Z,33.22
2023-02-27T02:18:15.952Z,32.95
2023-02-27T02:19:14.951Z,33.04
2023-02-27T02:20:16.013Z,33.33
2023-02-27T02:21:16.058Z,33.42
2023-02-27T02:22:16.092Z,33.08
2023-02-27T02:23:15.134Z,32.93
2023-02-27T02:24:16.216Z,32.91
2023-02-27T02:25:16.243Z,33.11
2023-02-27T02:26:16.268Z,32.89
2023-02-27T02:27:16.310Z,32.81
2023-02-27T02:28:16.356Z,32.94
2023-02-27T02:29:15.410Z,33.11
2023-02-27T02:30:16.460Z,32.91
2023-02-27T02:31:16.627Z,32.99
2023-02-27T02:32:16.579Z,33.02
2023-02-27T02:33:16.584Z,33.03
2023-02-27T02:34:16.641Z,33.28
2023-02-27T02:35:15.692Z,32.90
2023-02-27T02:36:15.744Z,32.82
2023-02-27T02:37:16.808Z,32.71
2023-02-27T02:38:16.831Z,33.00
2023-02-27T02:39:15.884Z,33.14
2023-02-27T02:40:16.974Z,32.72
2023-02-27T02:41:17.004Z,32.73
2023-02-27T02:42:16.073Z,32.88
2023-02-27T02:43:17.109Z,32.60
2023-02-27T02:44:17.166Z,32.77
2023-02-27T02:45:17.179Z,32.87
2023-02-27T02:46:17.326Z,32.68
2023-02-27T02:47:17.262Z,32.63
2023-02-27T02:48:17.322Z,32.95
2023-02-27T02:49:17.419Z,32.64
2023-02-27T02:51:35.619Z,32.98
2023-02-27T02:52:36.603Z,32.80
2023-02-27T02:53:37.588Z,32.74
2023-02-27T02:54:36.556Z,32.98
2023-02-27T02:55:35.543Z,32.89
2023-02-27T02:56:35.546Z,32.79
2023-02-27T02:57:35.618Z,32.90
2023-02-27T02:58:49.590Z,32.84
2023-02-27T02:59:35.579Z,32.97
2023-02-27T03:00:36.578Z,32.84
2023-02-27T03:01:35.595Z,32.94
2023-02-27T03:02:36.530Z,32.76
2023-02-27T03:03:36.506Z,32.66
2023-02-27T03:04:36.577Z,32.75
2023-02-27T03:05:36.514Z,32.73
2023-02-27T03:06:36.489Z,32.71
2023-02-27T03:07:36.541Z,32.64
2023-02-27T03:08:36.518Z,32.61
2023-02-27T03:10:54.682Z,32.90
2023-02-27T03:11:54.667Z,32.77
2023-02-27T03:12:55.669Z,32.83
2023-02-27T03:13:55.674Z,32.69
2023-02-27T03:14:55.652Z,32.68
2023-02-27T03:15:55.724Z,32.55
2023-02-27T03:16:54.654Z,32.47
2023-02-27T03:17:54.615Z,32.56
2023-02-27T03:18:55.617Z,32.57
2023-02-27T03:19:55.641Z,32.46
2023-02-27T03:20:55.675Z,32.54
2023-02-27T03:21:55.587Z,32.49
2023-02-27T03:22:55.588Z,32.43
2023-02-27T03:23:54.576Z,32.66
2023-02-27T03:24:55.587Z,32.60
2023-02-27T03:25:57.891Z,32.66
2023-02-27T03:26:54.643Z,32.54
2023-02-27T03:27:55.639Z,32.54
2023-02-27T03:28:54.637Z,32.50
2023-02-27T03:29:55.628Z,32.57
2023-02-27T03:30:55.720Z,32.51
2023-02-27T03:31:55.704Z,32.55
2023-02-27T03:32:54.627Z,32.59
2023-02-27T03:33:55.579Z,32.44
2023-02-27T03:34:55.584Z,32.45
2023-02-27T03:35:55.596Z,32.48
2023-02-27T03:36:55.579Z,32.41
2023-02-27T03:37:54.546Z,32.36
2023-02-27T03:38:55.538Z,32.51
2023-02-27T03:39:55.617Z,32.41
2023-02-27T03:40:54.538Z,32.45
2023-02-27T03:41:55.526Z,32.46
2023-02-27T03:42:55.514Z,32.32
2023-02-27T03:43:55.508Z,32.33
2023-02-27T03:44:55.502Z,32.54
2023-02-27T03:45:55.488Z,32.42
2023-02-27T03:46:55.478Z,32.32
2023-02-27T03:47:54.491Z,32.53
2023-02-27T03:48:55.488Z,32.36
2023-02-27T03:49:54.482Z,32.45
2023-02-27T03:50:55.471Z,32.52
2023-02-27T03:51:55.450Z,32.37
2023-02-27T03:52:55.435Z,32.53
2023-02-27T03:53:54.447Z,32.51
2023-02-27T03:54:55.532Z,32.57
2023-02-27T03:55:55.579Z,32.35
2023-02-27T03:56:55.640Z,32.33
2023-02-27T03:57:54.651Z,32.52
2023-02-27T03:58:55.743Z,32.44
2023-02-27T03:59:54.747Z,32.51
2023-02-27T04:00:55.818Z,32.34
2023-02-27T04:01:55.932Z,32.30
2023-02-27T04:02:55.991Z,32.62
2023-02-27T04:03:55.960Z,32.43
2023-02-27T04:04:56.044Z,32.36
2023-02-27T04:05:55.167Z,32.39
2023-02-27T04:06:55.131Z,32.35
2023-02-27T04:07:55.196Z,32.42
2023-02-27T04:08:56.237Z,32.48
2023-02-27T04:09:56.292Z,32.31
2023-02-27T04:10:56.389Z,32.31
2023-02-27T04:11:56.390Z,32.40
2023-02-27T04:12:56.425Z,32.56
2023-02-27T04:13:56.499Z,32.55
2023-02-27T04:14:56.531Z,32.40
2023-02-27T04:15:56.678Z,32.36
2023-02-27T04:16:56.675Z,32.32
2023-02-27T04:17:56.672Z,32.24
2023-02-27T04:18:57.009Z,32.28
2023-02-27T04:19:56.803Z,32.35
2023-02-27T04:20:56.883Z,32.35
2023-02-27T04:21:55.903Z,32.35
2023-02-27T04:22:56.930Z,32.31
2023-02-27T04:23:55.981Z,32.37
2023-02-27T04:24:57.059Z,32.34
2023-02-27T04:25:57.162Z,32.34
2023-02-27T04:26:57.166Z,32.48
2023-02-27T04:27:57.224Z,32.32
2023-02-27T04:28:57.326Z,32.44
2023-02-27T04:29:57.323Z,32.32
2023-02-27T04:30:57.449Z,32.33
2023-02-27T04:31:57.636Z,32.47
2023-02-27T04:32:57.474Z,32.43
2023-02-27T04:33:57.524Z,32.34
2023-02-27T04:34:57.565Z,32.33
2023-02-27T04:35:57.650Z,32.42
2023-02-27T04:36:57.868Z,32.35
2023-02-27T04:37:57.703Z,32.29
2023-02-27T04:38:57.812Z,32.34
2023-02-27T04:39:58.389Z,32.34
2023-02-27T04:40:57.899Z,32.38
2023-02-27T04:41:57.918Z,32.51
2023-02-27T04:42:57.979Z,32.30
2023-02-27T04:43:57.043Z,32.46
2023-02-27T04:44:57.095Z,32.32
2023-02-27T04:45:57.220Z,32.30
2023-02-27T04:46:58.202Z,32.29
2023-02-27T04:47:58.267Z,32.28
2023-02-27T04:48:58.306Z,32.36
2023-02-27T04:49:58.347Z,32.33
2023-02-27T04:50:58.423Z,32.31
2023-02-27T04:51:58.491Z,32.35
2023-02-27T04:52:57.514Z,32.43
2023-02-27T04:53:58.555Z,32.35
2023-02-27T04:54:57.614Z,32.27
2023-02-27T04:55:58.696Z,32.31
2023-02-27T04:56:58.733Z,32.29
2023-02-27T04:57:58.785Z,32.43
2023-02-27T04:58:58.844Z,32.38
2023-02-27T04:59:58.876Z,32.30
2023-02-27T05:00:59.048Z,32.32
2023-02-27T05:01:58.199Z,32.32
2023-02-27T05:02:59.140Z,32.29
2023-02-27T05:04:00.380Z,32.31
2023-02-27T05:04:59.156Z,32.38
2023-02-27T05:05:58.259Z,32.35
2023-02-27T05:06:59.298Z,32.34
2023-02-27T05:07:59.345Z,32.31
2023-02-27T05:08:59.372Z,32.39
2023-02-27T05:09:58.427Z,32.36
2023-02-27T05:10:59.490Z,32.31
2023-02-27T05:11:59.520Z,32.35
2023-02-27T05:12:59.660Z,32.31
2023-02-27T05:13:59.630Z,32.28
2023-02-27T05:14:59.729Z,32.35
2023-02-27T05:15:59.949Z,32.42
2023-02-27T05:16:58.795Z,32.44
2023-02-27T05:17:59.933Z,32.47
2023-02-27T05:18:59.930Z,32.23
2023-02-27T05:19:59.937Z,32.42
2023-02-27T05:21:00.025Z,32.31
2023-02-27T05:22:00.122Z,32.49
2023-02-27T05:22:59.102Z,32.31
2023-02-27T05:24:00.266Z,32.30
2023-02-27T05:25:00.193Z,32.30
2023-02-27T05:25:59.281Z,32.57
2023-02-27T05:27:00.327Z,32.43
2023-02-27T05:27:59.380Z,32.34
2023-02-27T05:29:00.426Z,32.29
2023-02-27T05:30:00.500Z,32.36
2023-02-27T05:31:00.568Z,32.25
2023-02-27T05:32:00.671Z,32.32
2023-02-27T05:33:00.648Z,32.25
2023-02-27T05:33:59.680Z,32.32
2023-02-27T05:35:00.735Z,32.35
2023-02-27T05:35:59.821Z,32.42
2023-02-27T05:37:00.924Z,32.42
2023-02-27T05:38:00.923Z,32.44
2023-02-27T05:39:00.961Z,32.41
2023-02-27T05:40:01.039Z,32.39
2023-02-27T05:41:01.067Z,32.30
2023-02-27T05:42:00.146Z,32.31
2023-02-27T05:43:00.191Z,32.36
2023-02-27T05:44:01.285Z,32.25
2023-02-27T05:45:01.296Z,32.41
2023-02-27T05:46:01.383Z,32.28
2023-02-27T05:47:01.425Z,32.23
2023-02-27T05:48:01.503Z,32.27
2023-02-27T05:49:01.530Z,32.28
2023-02-27T05:50:01.597Z,32.27
2023-02-27T05:51:01.677Z,32.32
2023-02-27T05:52:01.828Z,32.22
2023-02-27T05:53:01.769Z,32.24
2023-02-27T05:54:01.833Z,32.26
2023-02-27T05:55:01.894Z,32.33
2023-02-27T05:56:01.975Z,32.31
2023-02-27T05:57:02.009Z,32.27
2023-02-27T05:58:02.048Z,32.26
2023-02-27T05:59:02.108Z,32.36
2023-02-27T06:00:02.165Z,32.34
2023-02-27T06:01:01.259Z,32.25
2023-02-27T06:02:02.325Z,32.19
2023-02-27T06:03:02.385Z,32.22
2023-02-27T06:04:02.389Z,32.18
2023-02-27T06:05:02.494Z,32.25
2023-02-27T06:06:02.507Z,32.28
2023-02-27T06:07:02.560Z,32.21
2023-02-27T06:08:01.633Z,32.23
2023-02-27T06:09:02.656Z,32.32
2023-02-27T06:11:02.692Z,32.22
2023-02-27T06:12:02.724Z,32.28
2023-02-27T06:13:02.689Z,32.25
2023-02-27T06:14:02.684Z,32.42
2023-02-27T06:15:01.692Z,32.21
2023-02-27T06:16:02.667Z,32.27
2023-02-27T06:17:01.721Z,32.29
2023-02-27T06:18:01.649Z,32.29
2023-02-27T06:19:04.909Z,32.32
2023-02-27T06:20:01.628Z,32.33
2023-02-27T06:21:01.643Z,32.30
2023-02-27T06:22:01.617Z,32.28
2023-02-27T06:23:02.627Z,32.32
2023-02-27T06:24:02.625Z,32.38
2023-02-27T06:25:02.594Z,32.34
2023-02-27T06:26:02.597Z,32.42
2023-02-27T06:27:02.597Z,32.64
2023-02-27T06:28:02.599Z,32.65
2023-02-27T06:29:02.581Z,32.75
2023-02-27T06:30:02.552Z,32.64
2023-02-27T06:31:02.576Z,32.77
2023-02-27T06:32:01.568Z,32.77
2023-02-27T06:33:02.528Z,32.75
2023-02-27T06:34:01.522Z,32.81
2023-02-27T06:35:02.526Z,32.86
2023-02-27T06:36:02.521Z,32.75
2023-02-27T06:37:04.262Z,32.71
2023-02-27T06:38:01.488Z,32.79
2023-02-27T06:39:01.483Z,32.87
2023-02-27T06:40:02.469Z,32.92
2023-02-27T06:41:01.461Z,33.05
2023-02-27T06:42:02.445Z,33.13
2023-02-27T06:43:02.463Z,33.46
2023-02-27T06:44:01.469Z,33.36
2023-02-27T06:45:02.433Z,33.46
2023-02-27T06:46:02.530Z,33.70
2023-02-27T06:47:02.528Z,33.62
2023-02-27T06:48:01.432Z,33.83
2023-02-27T06:49:02.409Z,33.85
2023-02-27T06:50:01.414Z,34.11
2023-02-27T06:51:02.396Z,34.23
2023-02-27T06:52:02.379Z,34.19
2023-02-27T06:53:01.384Z,34.23
2023-02-27T06:54:01.372Z,34.45
2023-02-27T06:55:02.408Z,34.47
2023-02-27T06:56:02.369Z,34.84
2023-02-27T06:57:01.369Z,34.84
2023-02-27T06:58:02.347Z,34.97
2023-02-27T06:59:02.326Z,35.44
2023-02-27T07:00:02.354Z,36.74
2023-02-27T07:01:02.370Z,35.85
2023-02-27T07:02:02.305Z,37.14
2023-02-27T07:03:02.437Z,36.92
2023-02-27T07:04:02.300Z,36.83
2023-02-27T07:05:07.888Z,36.64
2023-02-27T07:06:02.278Z,31.65
2023-02-27T07:07:34.860Z,30.71
2023-02-27T07:08:02.262Z,31.28
2023-02-27T07:09:06.998Z,32.37
2023-02-27T07:10:02.270Z,32.75
2023-02-27T07:11:02.294Z,32.75
2023-02-27T07:12:01.222Z,33.77
2023-02-27T07:13:02.228Z,33.82
2023-02-27T07:14:02.206Z,33.84
2023-02-27T07:18:02.182Z,34.03
2023-02-27T07:19:02.180Z,34.29
2023-02-27T07:20:02.168Z,34.39
2023-02-27T07:21:02.161Z,34.29
2023-02-27T07:22:02.160Z,34.37
2023-02-27T07:30:02.100Z,34.76
2023-02-27T07:31:02.268Z,34.91
2023-02-27T07:32:02.140Z,35.03
2023-02-27T07:33:02.080Z,35.10
2023-02-27T07:34:02.058Z,35.11
2023-02-27T07:35:01.066Z,35.35
2023-02-27T07:36:02.089Z,35.41
2023-02-27T07:37:01.046Z,35.54
2023-02-27T07:38:02.069Z,35.69
2023-02-27T07:39:02.021Z,35.75
2023-02-27T07:40:02.028Z,35.92
2023-02-27T07:41:01.017Z,35.91
2023-02-27T07:42:01.997Z,35.96
2023-02-27T07:44:02.045Z,35.95
2023-02-27T07:45:01.983Z,36.06
2023-02-27T07:46:02.038Z,36.33
2023-02-27T07:47:02.011Z,36.43
2023-02-27T07:48:02.022Z,36.41
2023-02-27T07:49:01.955Z,36.49
2023-02-27T07:50:02.021Z,36.55
2023-02-27T07:51:02.081Z,36.89
2023-02-27T07:52:02.118Z,36.95
2023-02-27T07:53:02.461Z,37.06
2023-02-27T07:54:02.191Z,37.01
2023-02-27T07:55:02.284Z,36.97
2023-02-27T07:56:02.295Z,36.87
2023-02-27T07:57:02.345Z,36.85
2023-02-27T07:58:01.456Z,36.92
2023-02-27T07:59:02.454Z,36.91
2023-02-27T08:00:02.412Z,37.08
2023-02-27T08:01:02.446Z,37.02
2023-02-27T08:02:02.445Z,36.95
2023-02-27T08:03:02.524Z,37.03
2023-02-27T08:04:02.530Z,37.00
2023-02-27T08:05:02.530Z,37.05
2023-02-27T08:06:02.683Z,37.03
2023-02-27T08:08:02.512Z,36.98
2023-02-27T08:09:02.499Z,37.11
2023-02-27T08:10:02.506Z,37.14
2023-02-27T08:11:02.510Z,37.16
2023-02-27T08:12:02.522Z,37.12
2023-02-27T08:13:01.580Z,37.25
2023-02-27T08:14:03.301Z,37.17
2023-02-27T08:15:02.663Z,37.36
2023-02-27T08:16:02.748Z,37.48
2023-02-27T08:17:01.740Z,37.57
2023-02-27T08:18:02.755Z,37.41
2023-02-27T08:20:02.815Z,37.78
2023-02-27T08:21:02.860Z,37.64
2023-02-27T08:22:01.919Z,37.69
2023-02-27T08:23:02.982Z,37.86
2023-02-27T08:24:03.035Z,37.79
2023-02-27T08:25:03.089Z,37.83
2023-02-27T08:26:03.153Z,37.76
2023-02-27T08:27:03.218Z,37.92
2023-02-27T08:28:03.280Z,37.85
2023-02-27T08:29:03.333Z,37.86
2023-02-27T08:30:03.395Z,38.05
2023-02-27T08:31:03.524Z,37.91
2023-02-27T08:32:02.616Z,38.08
2023-02-27T08:33:03.586Z,38.10
2023-02-27T08:34:10.282Z,38.23
2023-02-27T08:35:03.646Z,38.35
2023-02-27T08:36:02.766Z,38.34
2023-02-27T08:37:02.637Z,38.18
2023-02-27T08:38:02.621Z,38.30
2023-02-27T08:39:03.617Z,38.49
2023-02-27T08:40:02.610Z,38.36
2023-02-27T08:41:02.602Z,38.35
2023-02-27T08:42:03.636Z,38.40
2023-02-27T08:43:03.615Z,38.53
2023-02-27T08:44:03.568Z,38.57
2023-02-27T08:45:03.573Z,38.74
2023-02-27T08:46:03.595Z,38.58
2023-02-27T08:47:03.547Z,38.67
2023-02-27T08:48:02.979Z,38.62
2023-02-27T08:49:03.535Z,38.47
2023-02-27T08:50:03.607Z,38.59
2023-02-27T08:51:03.527Z,38.40
2023-02-27T08:52:02.537Z,38.43
2023-02-27T08:53:03.976Z,38.41
2023-02-27T08:54:03.496Z,38.48
2023-02-27T08:55:03.484Z,38.58
2023-02-27T08:56:02.471Z,38.48
2023-02-27T08:57:03.468Z,38.52
2023-02-27T08:58:03.480Z,38.60
2023-02-27T08:59:03.460Z,38.43
2023-02-27T09:00:03.599Z,38.37
2023-02-27T09:01:03.510Z,38.49
2023-02-27T09:02:03.429Z,38.45
2023-02-27T09:03:03.482Z,38.42
2023-02-27T09:04:03.415Z,38.36
2023-02-27T09:05:02.406Z,38.33
2023-02-27T09:06:02.405Z,38.34
2023-02-27T09:07:03.392Z,38.32
2023-02-27T09:08:03.824Z,38.35
2023-02-27T09:09:02.389Z,38.29
2023-02-27T09:10:03.392Z,38.23
2023-02-27T09:11:03.379Z,38.10
2023-02-27T09:12:03.371Z,38.11
2023-02-27T09:13:02.383Z,38.08
2023-02-27T09:14:03.351Z,38.00
2023-02-27T09:15:03.346Z,38.01
2023-02-27T09:16:03.323Z,38.05
2023-02-27T09:17:03.326Z,37.98
2023-02-27T09:18:03.488Z,37.97
2023-02-27T09:19:03.329Z,37.94
2023-02-27T09:20:03.333Z,37.83
2023-02-27T09:21:03.373Z,37.75
2023-02-27T09:22:03.366Z,37.71
2023-02-27T09:23:03.391Z,37.71
2023-02-27T09:24:13.746Z,37.69
2023-02-27T09:25:03.400Z,37.59
2023-02-27T09:26:02.402Z,37.54
2023-02-27T09:27:03.383Z,37.44
2023-02-27T09:28:03.387Z,37.47
2023-02-27T09:29:03.359Z,37.51
2023-02-27T09:30:03.393Z,37.45
2023-02-27T09:31:03.356Z,37.48
2023-02-27T09:32:02.522Z,37.50
2023-02-27T09:33:03.490Z,37.40
2023-02-27T09:34:02.335Z,37.28
2023-02-27T09:35:03.327Z,37.29
2023-02-27T09:36:03.473Z,37.22
2023-02-27T09:37:03.308Z,37.17
2023-02-27T09:39:03.280Z,37.21
2023-02-27T09:40:03.300Z,37.08
2023-02-27T09:41:03.276Z,37.00
2023-02-27T09:42:03.280Z,36.97
2023-02-27T09:43:03.548Z,36.94
2023-02-27T09:44:02.257Z,36.85
2023-02-27T09:45:05.855Z,36.98
2023-02-27T09:46:03.452Z,37.03
2023-02-27T09:47:04.006Z,36.98
2023-02-27T09:48:03.221Z,37.06
2023-02-27T09:49:02.209Z,36.99
2023-02-27T09:50:02.203Z,37.29
2023-02-27T09:51:03.207Z,37.29
2023-02-27T09:52:02.183Z,37.17
2023-02-27T09:53:02.188Z,37.09
2023-02-27T09:54:03.182Z,37.02
2023-02-27T09:55:03.178Z,37.30
2023-02-27T09:56:03.204Z,37.38
2023-02-27T09:57:03.154Z,37.38
2023-02-27T09:58:03.499Z,37.40
2023-02-27T09:59:02.130Z,37.53
2023-02-27T10:00:02.140Z,37.63
2023-02-27T10:01:02.121Z,37.65
2023-02-27T10:02:02.178Z,37.68
2023-02-27T10:03:02.244Z,37.81
2023-02-27T10:04:03.225Z,37.89
2023-02-27T10:05:03.266Z,38.05
2023-02-27T10:06:02.354Z,38.06
2023-02-27T10:07:03.401Z,38.21
2023-02-27T10:08:03.515Z,38.30
2023-02-27T10:09:03.480Z,38.37
2023-02-27T10:10:03.514Z,38.52
2023-02-27T10:11:03.563Z,38.50
2023-02-27T10:12:04.138Z,38.58
2023-02-27T10:13:03.654Z,38.70
2023-02-27T10:14:03.670Z,38.81
2023-02-27T10:15:02.687Z,38.88
2023-02-27T10:16:02.730Z,38.92
2023-02-27T10:17:03.836Z,38.86
2023-02-27T10:18:13.009Z,39.01
2023-02-27T10:19:03.784Z,39.07
2023-02-27T10:20:03.788Z,39.23
2023-02-27T10:21:03.765Z,39.30
2023-02-27T10:22:03.766Z,39.38
2023-02-27T10:23:03.746Z,39.47
2023-02-27T10:24:05.583Z,39.41
2023-02-27T10:25:03.754Z,39.59
2023-02-27T10:26:02.734Z,39.66
2023-02-27T10:27:03.734Z,39.81
2023-02-27T10:28:02.764Z,39.62
2023-02-27T10:29:02.718Z,39.81
2023-02-27T10:30:03.716Z,39.95
2023-02-27T10:31:03.780Z,39.94
2023-02-27T10:32:03.783Z,40.13
2023-02-27T10:33:02.692Z,40.06
2023-02-27T10:34:02.719Z,40.10
2023-02-27T10:35:03.670Z,40.15
2023-02-27T10:36:03.837Z,40.36
2023-02-27T10:37:02.657Z,40.33
2023-02-27T10:38:03.651Z,40.47
2023-02-27T10:39:02.674Z,40.42
2023-02-27T10:40:02.691Z,40.57
2023-02-27T10:41:03.642Z,40.59
2023-02-27T10:42:03.632Z,40.66
2023-02-27T10:43:06.111Z,40.84
2023-02-27T10:44:03.691Z,40.90
2023-02-27T10:45:03.659Z,41.06
2023-02-27T10:46:03.665Z,41.01
2023-02-27T10:47:03.605Z,41.61
2023-02-27T10:48:03.589Z,41.30
2023-02-27T10:49:04.039Z,41.49
2023-02-27T10:50:03.568Z,40.95
2023-02-27T10:51:03.595Z,40.64
2023-02-27T10:52:03.575Z,40.51
2023-02-27T10:53:02.540Z,40.45
2023-02-27T10:54:03.553Z,40.82
2023-02-27T10:55:03.558Z,41.02
2023-02-27T10:56:03.605Z,40.95
2023-02-27T10:57:03.522Z,41.05
2023-02-27T10:58:03.511Z,41.03
2023-02-27T10:59:03.507Z,41.16
2023-02-27T11:00:02.532Z,41.20
2023-02-27T11:01:03.479Z,41.28
2023-02-27T11:02:02.478Z,41.34
2023-02-27T11:03:03.459Z,41.32
2023-02-27T11:04:03.453Z,41.28
2023-02-27T11:05:02.456Z,41.40
2023-02-27T11:06:03.455Z,41.57
2023-02-27T11:07:02.424Z,41.45
2023-02-27T11:08:03.435Z,41.66
2023-02-27T11:09:03.428Z,41.70
2023-02-27T11:10:03.418Z,41.70
2023-02-27T11:11:03.413Z,41.89
2023-02-27T11:12:03.401Z,41.89
2023-02-27T11:13:03.393Z,42.03
2023-02-27T11:14:03.398Z,42.03
2023-02-27T11:15:03.379Z,42.11
2023-02-27T11:16:03.578Z,42.15
2023-02-27T11:17:03.380Z,42.12
2023-02-27T11:18:02.353Z,42.15
2023-02-27T11:19:03.347Z,42.18
2023-02-27T11:20:03.339Z,42.52
2023-02-27T11:21:03.349Z,42.26
2023-02-27T11:22:03.325Z,42.37
2023-02-27T11:23:03.333Z,42.57
2023-02-27T11:24:03.367Z,42.60
2023-02-27T11:25:04.298Z,42.63
2023-02-27T11:26:03.505Z,42.72
2023-02-27T11:27:03.569Z,42.62
2023-02-27T11:28:03.635Z,42.79
2023-02-27T11:29:02.703Z,42.96
2023-02-27T11:30:03.755Z,42.89
2023-02-27T11:31:03.895Z,42.93
2023-02-27T11:32:03.925Z,42.97
2023-02-27T11:33:02.945Z,43.07
2023-02-27T11:34:03.020Z,43.26
2023-02-27T11:35:04.071Z,43.17
2023-02-27T11:36:04.134Z,42.48
2023-02-27T11:37:04.092Z,40.42
2023-02-27T11:38:03.157Z,37.65
2023-02-27T11:39:04.186Z,38.47
2023-02-27T11:40:04.215Z,39.68
2023-02-27T11:41:03.286Z,38.93
2023-02-27T11:42:04.308Z,38.89
2023-02-27T11:43:04.374Z,38.70
2023-02-27T11:44:04.540Z,38.87
2023-02-27T11:45:04.458Z,39.10
2023-02-27T11:46:36.689Z,38.49
2023-02-27T11:47:04.504Z,38.64
2023-02-27T11:48:03.529Z,38.35
2023-02-27T11:49:03.469Z,38.40
2023-02-27T11:50:04.473Z,37.90
2023-02-27T11:51:04.456Z,38.52
2023-02-27T11:52:04.453Z,38.34
2023-02-27T11:53:03.450Z,37.67
2023-02-27T11:54:03.442Z,36.49
2023-02-27T11:55:04.425Z,37.30
2023-02-27T11:56:04.422Z,37.14
2023-02-27T11:57:03.427Z,36.72
2023-02-27T11:58:04.414Z,37.10
2023-02-27T11:59:04.395Z,37.14
2023-02-27T12:00:04.393Z,37.16
2023-02-27T12:01:04.378Z,37.08
2023-02-27T12:02:04.377Z,36.96
2023-02-27T12:03:04.405Z,36.85
2023-02-27T12:04:03.446Z,36.69
2023-02-27T12:05:04.358Z,36.63
2023-02-27T12:06:04.346Z,36.58
2023-02-27T12:07:04.344Z,36.35
2023-02-27T12:08:04.343Z,36.38
2023-02-27T12:09:04.360Z,36.40
2023-02-27T12:10:04.338Z,36.29
2023-02-27T12:11:14.836Z,36.29
2023-02-27T12:12:04.305Z,36.28
2023-02-27T12:13:04.311Z,36.17
2023-02-27T12:14:04.293Z,36.23
2023-02-27T12:15:04.418Z,36.27
2023-02-27T12:16:04.382Z,36.10
2023-02-27T12:17:04.275Z,36.28
2023-02-27T12:18:03.257Z,36.36
2023-02-27T12:19:04.276Z,36.36
2023-02-27T12:20:04.271Z,36.42
2023-02-27T12:21:04.248Z,36.46
2023-02-27T12:22:03.231Z,36.57
2023-02-27T12:23:04.222Z,36.62
2023-02-27T12:24:04.221Z,36.77
2023-02-27T12:25:04.209Z,36.80
2023-02-27T12:26:03.206Z,36.89
2023-02-27T12:27:04.192Z,37.09
2023-02-27T12:28:04.181Z,37.18
2023-02-27T12:29:04.224Z,37.25
2023-02-27T12:30:04.174Z,37.32
2023-02-27T12:31:04.166Z,37.59
2023-02-27T12:32:04.286Z,37.63
2023-02-27T12:33:04.145Z,37.67
2023-02-27T12:34:04.154Z,37.90
2023-02-27T12:35:04.134Z,38.15
2023-02-27T12:36:04.233Z,38.49
2023-02-27T12:37:04.138Z,38.35
2023-02-27T12:38:03.230Z,38.42
2023-02-27T12:39:04.124Z,38.41
2023-02-27T12:40:03.113Z,38.49
2023-02-27T12:41:03.122Z,38.58
2023-02-27T12:42:04.125Z,38.69
2023-02-27T12:43:04.133Z,38.72
2023-02-27T12:44:04.176Z,38.85
2023-02-27T12:45:04.186Z,38.78
2023-02-27T12:46:04.248Z,38.77
2023-02-27T12:47:04.271Z,38.88
2023-02-27T12:48:04.314Z,38.96
2023-02-27T12:49:04.364Z,38.91
2023-02-27T12:50:04.376Z,38.91
2023-02-27T12:51:04.410Z,38.96
2023-02-27T12:52:04.516Z,38.94
2023-02-27T12:53:04.522Z,38.94
2023-02-27T12:54:04.593Z,39.02
2023-02-27T12:55:04.612Z,38.93
2023-02-27T12:56:03.658Z,38.94
2023-02-27T12:57:04.714Z,38.94
2023-02-27T12:58:04.769Z,38.95
2023-02-27T12:59:04.843Z,38.92
2023-02-27T13:00:04.882Z,38.92
2023-02-27T13:01:03.995Z,38.94
2023-02-27T13:02:04.971Z,38.90
2023-02-27T13:03:05.035Z,38.91
2023-02-27T13:04:05.140Z,38.89
2023-02-27T13:05:05.147Z,38.90
2023-02-27T13:06:05.204Z,38.78
2023-02-27T13:07:05.259Z,38.74
2023-02-27T13:08:05.356Z,38.75
2023-02-27T13:09:05.396Z,38.68
2023-02-27T13:10:04.457Z,38.73
2023-02-27T13:11:05.505Z,38.62
2023-02-27T13:12:05.561Z,38.67